Aérodrome :
LOGIN :

S'inscrire | Disclaimer

   EN    FR    IT 

 










Légende :    VFR   VFR Marginal   IFR   IFR Intensif   IFR Très Intensif
Visi : 
Plafond : 
>= 8 km
>= 3000ft
5 à 8 km
1000 à 3000 ft
1500m à 5 km
500 à 1000 ft
800 à 1500m
200 à 500 ft
< 800m
< 200 ft
Symboles :   Orages  Brouillard  Fortes neiges  Fortes précipitations  Vent > 20 kt
SIGMETs :   Divers  Orages  Givrage  Turbulence  Onde Orograph.  Cendres Volcan.







- Altitude de l'aérodrome : 16 ft
- Code IATA : EAS


LESO - San Sebastian Fuenterrabia

DERNIER METAR :
  • 220030Z AUTO VRB01KT CAVOK 17/16 Q1015

METARs EXPIRÉS :
  • 220000Z AUTO VRB02KT CAVOK 17/16 Q1015
  • 212330Z AUTO 16003KT 120V200 9999 NCD 17/17 Q1015
  • 212300Z AUTO 15003KT 110V190 CAVOK 18/17 Q1015
  • 212230Z AUTO VRB02KT 9999 NCD 18/17 Q1015
  • 212200Z AUTO 24001KT 9000 NCD 19/17 Q1015
  • 212130Z AUTO 22002KT 9999 NCD 19/17 Q1015

TAF TAF LESO
Valide du 22 à 00h jusqu'au 23 à 00h UTC


212300Z 2200/2224 VRB04KT 9999 FEW030 TX24/2215Z TN17/2204Z
BECMG 2212/2215 35010KT
PROB40
TEMPO 2215/2221 3000 -RADZ BKN014
Pas de NOTAMs connus pour ce terrain.



MET'MAP, la Météo Aéronautique d'un coup d'oeil ! - Copyright ORBIFLY Décembre 2007 - Disclaimer

ORBIFLY MET'MAP TEAM :

Programmation & Développement : Alexandra Zaïnal
Conception & Développement : Baudouin d'Aumeries
Co-Programmation & Développement : Marc-Olivier Méhu
Soutien technique & logistique : Manuel Goepfert

Contact : metmap@orbifly.com




SOURCES & CREDITS :

   NOAA